KMMT/MMT METAR and TAF weather

Enter ICAO airport designator
Station Type Date Time Source
KMMT METAR 2019/09/21 20:56 UTC NOAA

KMMT 212056Z AUTO 18006KT 10SM CLR 31/12 A3021 RMK AO2 SLP231 T03050119 57020 $


Station Type Date Time Source
KMMT Decoded METAR 2019/09/21 20:56 UTC NOAA

McEntire Air National Guard Weather Facility Base, SC, United States (KMMT) 33-55N 080-48W
Sep 21, 2019 - 04:56 PM EDT / 2019.09.21 2056 UTC
Wind: from the S (180 degrees) at 7 MPH (6 KT):0
Visibility: 10 mile(s):0
Sky conditions: clear
Temperature: 86.9 F (30.5 C)
Dew Point: 53.4 F (11.9 C)
Relative Humidity: 31%
Pressure (altimeter): 30.21 in. Hg (1023 hPa)
Pressure tendency: 0.06 inches (2.0 hPa) lower than three hours ago
ob: KMMT 212056Z AUTO 18006KT 10SM CLR 31/12 A3021 RMK AO2 SLP231 T03050119 57020
cycle: 21

Station Type Date Time Source
KMMT TAF 2019/09/21 15:06 UTC NOAA

TAF TAF KMMT 211500Z 2115/2221 VRB06KT 9999 FEW050 QNH3012INS TX29/2121Z TN14/2211Z

Example: see airport list